Knoxville, Tennessee
Current Conditions -  °F | °C
As of 5:53 PM on Monday 24 Nov 2014 (Local Time) from KTYS Reporting Station
Few Clouds Few Clouds  
Wind Chill: 61°   Ceiling: Unl
Heat Index: 61°   Visibility: 10mi
Dew Point: 41°   Wind: 14mph
Humidity: 48%   Direction: 260°W
Pressure: 29.81"   Gusts: NA
Location:  35.96°N, 83.92°W
Report Text: KTYS 242253Z 26012KT 10SM FEW065 16/05 A2981 RMK AO2 SLP088 T01610050
Loading
Personal Weather Stations






























Interactive Weather Map New forecast layout! Learn more

10-Day Weather Forecast

Advertisements
Track Severe Weather on mobile